• Join FlightAware (Why Join?)
  • Login
  • US Flag 
12:29PM EDT


 

Airport Tracker/Info


-or-


 

Live Flight TrackerFlight Track Log ✈ AWI3606 ✈ 23-May-2013 ✈ KDCA - KBGR

Flight Track Log - Related Links

Times and Time Zones

All times are in EDT time to prevent confusion due to time zone crossing. See the AWI3606 flight status page for this flight to view local times or setup timezone preferences in your user account.

Time Position Orientation Groundspeed Altitude Reporting Facility
EDT Latitude Longitude Course Direction KTS MPH feet Rate Location/Type
12:03AM 38.8833 -77.0667 319° Northwest 162 186 2,000  Level Potomac TRACON
12:06AM 39.0006 -77.1969 319° Northwest 236 272 8,200 2,400 Climbing Washington Center
12:07AM 39.0581 -77.2622 319° Northwest 259 298 10,500 2,100 Climbing Washington Center
12:08AM 39.1197 -77.3333 318° Northwest 286 329 12,500 1,620 Climbing Washington Center
12:09AM 39.1981 -77.3942 329° Northwest 319 367 13,900 1,320 Climbing Washington Center
12:11AM 39.4461 -77.4256 354° North 373 429 17,100 1,320 Climbing New York Center
12:12AM 39.5578 -77.4414 354° North 383 441 18,500 1,200 Climbing New York Center
12:13AM 39.6719 -77.4522 356° North 397 457 19,600 1,020 Climbing New York Center
12:14AM 39.7867 -77.4522 360° North 403 464 20,600 960 Climbing New York Center
12:15AM 39.8942 -77.3947 22° Northeast 403 464 21,600 900 Climbing New York Center
12:16AM 39.9814 -77.2894 43° Northeast 396 456 22,500 840 Climbing New York Center
12:17AM 40.0706 -77.1836 42° Northeast 414 476 23,300 900 Climbing New York Center
12:18AM 40.1708 -77.0653 42° Northeast 427 491 24,300 900 Climbing New York Center
12:19AM 40.2600 -76.9564 43° Northeast 427 491 25,200 900 Climbing New York Center
12:20AM 40.3508 -76.8528 41° Northeast 427 491 26,200 900 Climbing New York Center
12:21AM 40.4397 -76.7433 43° Northeast 427 491 27,000 600 Climbing New York Center
12:22AM 40.5283 -76.6364 43° Northeast 427 491 27,500 540 Climbing New York Center
12:23AM 40.6217 -76.5211 43° Northeast 433 498 28,100 540 Climbing New York Center
12:24AM 40.7144 -76.4083 43° Northeast 447 514 28,600 420 Climbing New York Center
12:25AM 40.8097 -76.2928 43° Northeast 452 520 29,000 180 Climbing New York Center
12:26AM 40.9028 -76.1742 44° Northeast 457 526 29,000  Level New York Center
12:27AM 41.0042 -76.0503 43° Northeast 469 540 29,000  Level New York Center
12:28AM 41.1056 -75.9231 43° Northeast 486 559 29,000  Level New York Center
12:29AM 41.2089 -75.7986 42° Northeast 492 566 29,000  Level New York Center
12:30AM 41.3317 -75.7000 31° Northeast 504 580 29,000  Level New York Center
12:31AM 41.4483 -75.5978 33° Northeast 504 580 29,000  Level New York Center
12:33AM 41.7122 -75.3686 33° Northeast 512 589 29,000  Level Boston Center
12:34AM 41.8317 -75.2656 33° Northeast 512 589 29,000  Level Boston Center
12:35AM 41.9489 -75.1589 34° Northeast 512 589 29,000  Level Boston Center
12:36AM 42.0550 -75.0714 31° Northeast 505 581 29,000  Level Boston Center
12:37AM 42.1881 -75.0042 21° North 500 575 29,000  Level Boston Center
12:38AM 42.3031 -74.8964 35° Northeast 500 575 29,000  Level Boston Center
12:39AM 42.3708 -74.7333 61° Northeast 481 554 29,000  Level Boston Center
12:40AM 42.4431 -74.5672 59° Northeast 492 566 29,000  Level Boston Center
12:41AM 42.5167 -74.4061 58° Northeast 499 574 29,000  Level Boston Center
12:42AM 42.5903 -74.2394 59° Northeast 505 581 29,000  Level Boston Center
12:43AM 42.6617 -74.0747 59° Northeast 505 581 29,000 -60 Level Boston Center
12:44AM 42.7389 -73.9100 57° Northeast 505 581 28,900  Descending Boston Center
12:45AM 42.8097 -73.7419 60° Northeast 505 581 29,000  Climbing Boston Center
12:46AM 42.8825 -73.5764 59° Northeast 505 581 29,000  Level Boston Center
12:47AM 42.9547 -73.4103 59° Northeast 505 581 29,000  Level Boston Center
12:48AM 43.0353 -73.2439 56° Northeast 510 587 29,000  Level Boston Center
12:49AM 43.1072 -73.0742 60° Northeast 510 587 29,000  Level Boston Center
12:50AM 43.1789 -72.9042 60° Northeast 510 587 29,000 -60 Level Boston Center
12:51AM 43.2525 -72.7367 59° Northeast 510 587 28,900 -300 Descending Boston Center
12:52AM 43.3256 -72.5628 60° Northeast 510 587 28,400 -540 Descending Boston Center
12:53AM 43.3967 -72.3917 60° Northeast 510 587 27,900 -540 Descending Boston Center
12:54AM 43.4714 -72.2197 59° Northeast 510 587 27,400 -660 Descending Boston Center
12:55AM 43.5417 -72.0447 61° Northeast 510 587 26,600 -900 Descending Boston Center
12:56AM 43.6161 -71.8722 59° Northeast 510 587 25,600 -960 Descending Boston Center
12:57AM 43.6839 -71.7022 61° Northeast 505 581 24,600 -1,020 Descending Boston Center
12:58AM 43.7719 -71.4797 61° Northeast 505 581 23,400 -1,140 Descending Boston Center
12:59AM 43.8392 -71.3147 60° Northeast 505 581 22,400 -1,200 Descending Boston Center
01:00AM 43.9061 -71.1492 61° Northeast 505 581 21,100 -1,380 Descending Boston Center
01:01AM 43.9731 -70.9861 60° Northeast 499 574 19,700 -1,500 Descending Boston Center
01:02AM 44.0314 -70.8433 60° Northeast 481 554 18,100 -1,620 Descending Boston Center
01:03AM 44.0997 -70.6681 61° Northeast 467 537 16,500 -1,560 Descending Boston Center
01:04AM 44.1558 -70.5303 60° Northeast 467 537 15,000 -1,380 Descending Boston Center
01:05AM 44.2219 -70.3689 60° Northeast 446 513 13,800 -1,140 Descending Boston Center
01:06AM 44.2753 -70.2219 63° Northeast 434 499 12,800 -960 Descending Boston Center
01:07AM 44.3292 -70.0922 60° Northeast 428 493 11,900 -840 Descending Boston Center
01:08AM 44.3903 -69.9358 61° Northeast 423 487 11,200 -480 Descending Boston Center
01:09AM 44.4414 -69.7969 63° Northeast 416 479 11,000 -120 Descending Boston Center
01:10AM 44.4906 -69.6667 62° Northeast 398 458 11,000 -60 Level Boston Center
01:11AM 44.5481 -69.5503 55° Northeast 376 433 10,900 -600 Descending Boston Center
01:12AM 44.6208 -69.4650 40° Northeast 347 399 9,800 -1,500 Descending Boston Center
01:13AM 44.6875 -69.3800 42° Northeast 329 379 8,000 -1,800 Descending Boston Center
01:14AM 44.7561 -69.2944 42° Northeast 329 379 6,200 -1,680 Descending Boston Center
01:15AM 44.8206 -69.2178 40° Northeast 324 373 4,700 -1,500 Descending Boston Center
01:16AM 44.8831 -69.1381 42° Northeast 311 358 3,300 -1,080 Descending Boston Center
01:17AM 44.9244 -69.0597 53° Northeast 280 322 2,600 -480 Descending Boston Center
01:18AM 44.9158 -68.9808 99° East 214 246 2,400 -300 Descending Boston Center
01:19AM 44.8811 -68.9361 138° Southeast 160 184 2,000 -600 Descending Boston Center
01:20AM 44.8531 -68.8997 137° Southeast 148 170 1,200 -780 Descending Boston Center
01:21AM 44.8267 -68.8603 133° Southeast 142 163 500 -540 Descending Boston Center
01:22AM 44.8028 -68.8236 133° Southeast 137 158 200 5,220 Descending Boston Center
01:23AM 44.7767 -68.7903 138° Southeast 137 158 11,000 10,800 Climbing Boston Center